Time;durP1;ratioP1;P1;durP2;ratioP2;P2;SDS_P1;SDS_P2;PMS_P1;PMS_P2;Temp;Humidity;BMP_temperature;BMP_pressure;BME280_temperature;BME280_humidity;BME280_pressure;Samples;Min_cycle;Max_cycle;Signal;HPM_P1;HPM_P2
2024/04/13 00:01:23;;;;;;;;;;;;;;;12.30;96.86;93974.25;5411419;26;20318;-72
2024/04/13 00:03:51;;;;;;;;;;;;;;;12.28;96.96;93968.53;5412238;26;19936;-72
2024/04/13 00:06:17;;;;;;;;;;;;;;;12.27;96.52;93970.31;5408711;26;19935;-72
2024/04/13 00:08:42;;;;;;;;;;;;;;;12.29;96.94;93967.53;5408007;26;19937;-72
2024/04/13 00:11:08;;;;;;;;;;;;;;;12.20;97.43;93954.06;5412511;26;20432;-72
2024/04/13 00:13:37;;;;;;;;;;;;;;;12.26;98.15;93966.16;5407225;26;19929;-72
2024/04/13 00:16:03;;;;;;;;;;;;;;;12.22;98.62;93966.75;5406292;26;19979;-72
2024/04/13 00:18:31;;;;;;;;;;;;;;;12.23;97.70;93969.13;5403615;26;19964;-72
2024/04/13 00:20:57;;;;;;;;;;;;;;;12.19;97.38;93965.38;5403969;26;20345;-72
2024/04/13 00:23:24;;;;;;;;;;;;;;;12.09;97.30;93967.56;5410724;26;19936;-72
2024/04/13 00:25:51;;;;;;;;;;;;;;;12.06;97.11;93963.59;5409044;26;19929;-72
2024/04/13 00:28:17;;;;;;;;;;;;;;;12.05;97.71;93962.03;5411732;26;20422;-72
2024/04/13 00:30:42;;;;;;;;;;;;;;;12.03;97.57;93963.97;5411919;26;19929;-72
2024/04/13 00:33:09;;;;;;;;;;;;;;;12.00;97.75;93961.81;5407549;26;20011;-72
2024/04/13 00:35:35;;;;;;;;;;;;;;;11.98;98.17;93961.19;5405592;26;19938;-72
2024/04/13 00:38:02;;;;;;;;;;;;;;;12.00;96.99;93960.00;5410250;26;19933;-72
2024/04/13 00:40:28;;;;;;;;;;;;;;;11.99;98.39;93970.53;5398748;26;19937;-72
2024/04/13 00:42:57;;;;;;;;;;;;;;;11.98;97.79;93961.19;5407343;26;19929;-72
2024/04/13 00:45:27;;;;;;;;;;;;;;;11.92;97.55;93965.38;5406494;26;20372;-72
2024/04/13 00:47:53;;;;;;;;;;;;;;;11.86;97.03;93958.44;5406758;26;19944;-72
2024/04/13 00:50:18;;;;;;;;;;;;;;;11.78;98.18;93956.84;5402200;26;19929;-72
2024/04/13 00:52:46;;;;;;;;;;;;;;;11.70;98.46;93951.91;5411323;26;19936;-72
2024/04/13 00:55:12;;;;;;;;;;;;;;;11.66;99.39;93964.38;5405660;26;19937;-72
2024/04/13 00:57:39;;;;;;;;;;;;;;;11.62;100.00;93963.97;5407563;26;19936;-72
2024/04/13 01:00:05;;;;;;;;;;;;;;;11.63;100.00;93962.97;5411783;26;19933;-72
2024/04/13 01:02:30;;;;;;;;;;;;;;;11.61;100.00;93959.81;5411186;26;19936;-72
2024/04/13 01:04:57;;;;;;;;;;;;;;;11.59;100.00;93955.88;5406372;26;19929;-72
2024/04/13 01:07:24;;;;;;;;;;;;;;;11.56;100.00;93956.25;5411520;26;19957;-72
2024/04/13 01:09:49;;;;;;;;;;;;;;;11.56;100.00;93959.63;5410612;26;20253;-72
2024/04/13 01:12:15;;;;;;;;;;;;;;;11.56;100.00;93951.09;5411219;26;19935;-72
2024/04/13 01:14:41;;;;;;;;;;;;;;;11.52;100.00;93960.22;5402610;26;20988;-72
2024/04/13 01:17:06;;;;;;;;;;;;;;;11.48;100.00;93954.69;5407850;26;20261;-72
2024/04/13 01:19:32;;;;;;;;;;;;;;;11.52;100.00;93949.94;5402595;26;19937;-72
2024/04/13 01:21:59;;;;;;;;;;;;;;;11.52;100.00;93955.06;5411242;26;19928;-72
2024/04/13 01:24:24;;;;;;;;;;;;;;;11.53;100.00;93943.78;5405370;26;19936;-72
2024/04/13 01:26:49;;;;;;;;;;;;;;;11.49;100.00;93951.88;5411069;26;19929;-72
2024/04/13 01:29:16;;;;;;;;;;;;;;;11.45;100.00;93947.34;5400708;26;19929;-72
2024/04/13 01:31:42;;;;;;;;;;;;;;;11.44;100.00;93946.53;5405912;26;20004;-72
2024/04/13 01:34:07;;;;;;;;;;;;;;;11.46;100.00;93951.50;5402535;26;19938;-72
2024/04/13 01:36:39;;;;;;;;;;;;;;;11.47;100.00;93945.34;5407975;26;19936;-72
2024/04/13 01:39:07;;;;;;;;;;;;;;;11.46;100.00;93946.34;5408884;26;19929;-72
2024/04/13 01:41:53;;;;;;;;;;;;;;;11.47;100.00;93945.34;5405795;26;19933;-72
2024/04/13 01:44:18;;;;;;;;;;;;;;;11.46;100.00;93941.19;5403664;26;20897;-72
2024/04/13 01:46:44;;;;;;;;;;;;;;;11.45;100.00;93945.56;5409534;26;19928;-72
2024/04/13 01:49:09;;;;;;;;;;;;;;;11.45;100.00;93940.44;5403635;26;19940;-72
2024/04/13 01:51:35;;;;;;;;;;;;;;;11.42;100.00;93937.44;5401060;26;20296;-72
2024/04/13 01:54:01;;;;;;;;;;;;;;;11.38;100.00;93939.59;5406040;26;20392;-72
2024/04/13 01:56:27;;;;;;;;;;;;;;;11.36;100.00;93936.44;5409263;26;19944;-72
2024/04/13 01:58:53;;;;;;;;;;;;;;;11.38;100.00;93933.69;5405678;26;19940;-72
2024/04/13 02:01:18;;;;;;;;;;;;;;;11.36;100.00;93939.03;5408454;26;19929;-72
2024/04/13 02:03:44;;;;;;;;;;;;;;;11.33;100.00;93932.50;5409530;26;20309;-72
2024/04/13 02:06:09;;;;;;;;;;;;;;;11.34;100.00;93941.00;5407103;26;19933;-72
2024/04/13 02:08:35;;;;;;;;;;;;;;;11.32;100.00;93938.63;5408304;26;19929;-72
2024/04/13 02:11:00;;;;;;;;;;;;;;;11.29;100.00;93935.66;5408864;26;19941;-72
2024/04/13 02:13:26;;;;;;;;;;;;;;;11.26;100.00;93941.97;5405328;26;19929;-72
2024/04/13 02:15:52;;;;;;;;;;;;;;;11.21;100.00;93934.06;5407927;26;20012;-72
2024/04/13 02:18:20;;;;;;;;;;;;;;;11.20;100.00;93929.91;5408065;26;20310;-72
2024/04/13 02:20:45;;;;;;;;;;;;;;;11.21;100.00;93937.41;5396764;26;19929;-72
2024/04/13 02:23:11;;;;;;;;;;;;;;;11.26;100.00;93931.69;5408440;26;19981;-72
2024/04/13 02:25:39;;;;;;;;;;;;;;;11.25;100.00;93930.09;5409016;26;19929;-72
2024/04/13 02:28:04;;;;;;;;;;;;;;;11.25;100.00;93927.50;5406000;26;19929;-72
2024/04/13 02:30:30;;;;;;;;;;;;;;;11.27;100.00;93932.47;5408373;26;19957;-72
2024/04/13 02:32:57;;;;;;;;;;;;;;;11.26;100.00;93929.13;5405741;26;19929;-72
2024/04/13 02:35:23;;;;;;;;;;;;;;;11.23;100.00;93932.88;5408971;26;20252;-72
2024/04/13 02:37:48;;;;;;;;;;;;;;;11.19;100.00;93929.09;5408596;26;19928;-72
2024/04/13 02:40:16;;;;;;;;;;;;;;;11.17;100.00;93933.66;5395659;26;19956;-71
2024/04/13 02:42:42;;;;;;;;;;;;;;;11.16;100.00;93931.28;5407691;26;19936;-72
2024/04/13 02:45:10;;;;;;;;;;;;;;;11.15;100.00;93937.41;5408954;26;19944;-72
2024/04/13 02:47:35;;;;;;;;;;;;;;;11.14;100.00;93938.38;5404178;26;19940;-73
2024/04/13 02:50:00;;;;;;;;;;;;;;;11.13;100.00;93936.78;5405320;26;19929;-72
2024/04/13 02:52:26;;;;;;;;;;;;;;;11.13;100.00;93936.78;5403613;26;19997;-72
2024/04/13 02:54:53;;;;;;;;;;;;;;;11.13;100.00;93936.78;5408004;26;19936;-72
2024/04/13 02:57:18;;;;;;;;;;;;;;;11.12;100.00;93930.88;5402979;26;19936;-72
2024/04/13 02:59:44;;;;;;;;;;;;;;;11.12;100.00;93933.44;5406996;26;20249;-72
2024/04/13 03:02:12;;;;;;;;;;;;;;;11.14;100.00;93935.81;5407448;26;19936;-72
2024/04/13 03:04:37;;;;;;;;;;;;;;;11.10;100.00;93935.41;5406565;26;19929;-72
2024/04/13 03:07:03;;;;;;;;;;;;;;;11.08;100.00;93937.38;5408654;26;19929;-72
2024/04/13 03:09:29;;;;;;;;;;;;;;;11.04;100.00;93937.00;5407490;26;19983;-72
2024/04/13 03:11:56;;;;;;;;;;;;;;;11.05;100.00;93941.13;5406871;26;19929;-72
2024/04/13 03:14:21;;;;;;;;;;;;;;;11.04;100.00;93939.56;5408101;26;19937;-72
2024/04/13 03:16:46;;;;;;;;;;;;;;;11.01;100.00;93937.38;5403241;26;19929;-72
2024/04/13 03:19:12;;;;;;;;;;;;;;;10.98;100.00;93944.69;5402415;26;19932;-72
2024/04/13 03:21:38;;;;;;;;;;;;;;;10.98;100.00;93942.91;5393843;26;19933;-72
2024/04/13 03:24:04;;;;;;;;;;;;;;;10.95;100.00;93938.13;5407382;26;19975;-72
2024/04/13 03:26:29;;;;;;;;;;;;;;;10.93;100.00;93942.69;5403010;26;19929;-72
2024/04/13 03:28:54;;;;;;;;;;;;;;;10.92;100.00;93939.31;5407418;26;20001;-72
2024/04/13 03:31:22;;;;;;;;;;;;;;;10.90;100.00;93937.94;5407789;26;20303;-72
2024/04/13 03:33:48;;;;;;;;;;;;;;;10.90;100.00;93938.72;5407757;26;20361;-72
2024/04/13 03:36:14;;;;;;;;;;;;;;;10.93;100.00;93942.69;5401704;26;19929;-72
2024/04/13 03:38:40;;;;;;;;;;;;;;;10.93;100.00;93935.75;5404337;26;20423;-72
2024/04/13 03:41:06;;;;;;;;;;;;;;;10.95;100.00;93933.81;5404789;26;19941;-72
2024/04/13 03:43:37;;;;;;;;;;;;;;;10.97;100.00;93941.31;5407755;26;19928;-72
2024/04/13 03:46:03;;;;;;;;;;;;;;;11.00;100.00;93940.94;5403118;26;19929;-71
2024/04/13 03:48:29;;;;;;;;;;;;;;;11.02;100.00;93943.31;5405506;26;19937;-73
2024/04/13 03:50:57;;;;;;;;;;;;;;;11.04;100.00;93939.56;5404003;26;20261;-73
2024/04/13 03:53:22;;;;;;;;;;;;;;;11.02;100.00;93946.66;5405486;26;20257;-73
2024/04/13 03:55:47;;;;;;;;;;;;;;;11.05;100.00;93940.34;5405656;26;19941;-72
2024/04/13 03:58:13;;;;;;;;;;;;;;;11.07;100.00;93946.09;5408140;26;19929;-72
2024/04/13 04:00:38;;;;;;;;;;;;;;;11.07;100.00;93948.66;5408918;26;19975;-72
2024/04/13 04:03:04;;;;;;;;;;;;;;;11.06;100.00;93950.44;5407477;26;19936;-72
2024/04/13 04:05:29;;;;;;;;;;;;;;;11.10;100.00;93955.97;5409499;26;20376;-72
2024/04/13 04:07:55;;;;;;;;;;;;;;;11.12;100.00;93959.16;5410070;26;19936;-72
2024/04/13 04:10:21;;;;;;;;;;;;;;;11.14;100.00;93954.59;5407549;26;20315;-72
2024/04/13 04:12:46;;;;;;;;;;;;;;;11.14;100.00;93964.09;5411616;26;19936;-72
2024/04/13 04:15:12;;;;;;;;;;;;;;;11.14;100.00;93957.19;5409172;26;19929;-72
2024/04/13 04:17:37;;;;;;;;;;;;;;;11.17;100.00;93961.94;5406313;26;19936;-72
2024/04/13 04:20:03;;;;;;;;;;;;;;;11.21;100.00;93963.13;5408477;26;19928;-72
2024/04/13 04:22:28;;;;;;;;;;;;;;;11.26;100.00;93965.13;5409927;26;19945;-72
2024/04/13 04:24:54;;;;;;;;;;;;;;;11.32;100.00;93976.41;5413741;26;20381;-72
2024/04/13 04:27:20;;;;;;;;;;;;;;;11.35;100.00;93981.94;5411467;26;19975;-72
2024/04/13 04:29:45;;;;;;;;;;;;;;;11.41;100.00;93977.00;5421921;26;19928;-72
2024/04/13 04:32:11;;;;;;;;;;;;;;;11.46;100.00;93977.22;5415486;26;19957;-72
2024/04/13 04:34:36;;;;;;;;;;;;;;;11.52;100.00;93981.56;5416057;26;19998;-72
2024/04/13 04:37:01;;;;;;;;;;;;;;;11.60;100.00;93983.97;5421992;26;19998;-72
2024/04/13 04:39:28;;;;;;;;;;;;;;;11.66;100.00;93992.69;5425041;26;20256;-72
2024/04/13 04:41:54;;;;;;;;;;;;;;;11.70;100.00;93985.34;5408324;26;19936;-72
2024/04/13 04:44:19;;;;;;;;;;;;;;;11.77;100.00;93988.75;5415871;26;19929;-72
2024/04/13 04:46:45;;;;;;;;;;;;;;;11.81;100.00;93986.56;5408542;26;19929;-72
2024/04/13 04:49:10;;;;;;;;;;;;;;;11.86;100.00;93992.69;5403696;26;19936;-72
2024/04/13 04:51:35;;;;;;;;;;;;;;;11.90;100.00;93985.38;5410358;26;19945;-72
2024/04/13 04:54:01;;;;;;;;;;;;;;;11.96;100.00;93991.50;5412331;26;19969;-72
2024/04/13 04:56:26;;;;;;;;;;;;;;;11.99;100.00;93989.31;5408989;26;20267;-72
2024/04/13 04:58:52;;;;;;;;;;;;;;;12.03;100.00;93982.78;5412464;26;20350;-72
2024/04/13 05:01:17;;;;;;;;;;;;;;;12.07;100.00;93993.50;5411855;26;19936;-72
2024/04/13 05:03:43;;;;;;;;;;;;;;;12.11;100.00;93981.03;5417404;26;20216;-72
2024/04/13 05:06:08;;;;;;;;;;;;;;;12.11;100.00;93984.41;5409565;26;19940;-73
2024/04/13 05:08:33;;;;;;;;;;;;;;;12.13;100.00;93987.56;5406609;26;21052;-72
2024/04/13 05:10:59;;;;;;;;;;;;;;;12.15;100.00;93988.16;5411878;26;19936;-73
2024/04/13 05:13:24;;;;;;;;;;;;;;;12.19;100.00;93990.34;5434191;26;19998;-73
2024/04/13 05:15:50;;;;;;;;;;;;;;;12.26;100.00;93997.06;5428018;26;19998;-73
2024/04/13 05:18:15;;;;;;;;;;;;;;;12.37;100.00;93993.06;5402998;26;19936;-72
2024/04/13 05:20:41;;;;;;;;;;;;;;;12.47;100.00;93997.03;5403428;26;19963;-72
2024/04/13 05:23:07;;;;;;;;;;;;;;;12.53;100.00;93994.44;5421979;26;19941;-72
2024/04/13 05:25:33;;;;;;;;;;;;;;;12.68;100.00;93985.66;5405165;26;19930;-72
2024/04/13 05:27:58;;;;;;;;;;;;;;;12.76;100.00;93993.19;5412386;26;19936;-72
2024/04/13 05:30:24;;;;;;;;;;;;;;;12.90;100.00;93993.13;5421043;26;20392;-72
2024/04/13 05:32:49;;;;;;;;;;;;;;;13.07;100.00;93990.88;5412009;26;20246;-72
2024/04/13 05:35:18;;;;;;;;;;;;;;;13.25;100.00;93990.22;5412532;26;20361;-72
2024/04/13 05:37:43;;;;;;;;;;;;;;;13.41;99.74;93988.13;5413180;26;20010;-73
2024/04/13 05:40:09;;;;;;;;;;;;;;;13.61;98.26;93981.09;5407591;26;19930;-72
2024/04/13 05:42:34;;;;;;;;;;;;;;;13.81;100.00;93984.53;5404322;26;20002;-72
2024/04/13 05:44:59;;;;;;;;;;;;;;;13.95;100.00;93980.84;5422479;26;19929;-72
2024/04/13 05:47:25;;;;;;;;;;;;;;;14.12;100.00;93983.69;5422520;26;19936;-72
2024/04/13 05:49:50;;;;;;;;;;;;;;;14.36;100.00;93985.66;5409321;26;19998;-72
2024/04/13 05:52:16;;;;;;;;;;;;;;;14.58;100.00;93986.03;5435862;26;19935;-72
2024/04/13 05:54:41;;;;;;;;;;;;;;;14.80;100.00;93986.44;5419849;26;20348;-73
2024/04/13 05:57:07;;;;;;;;;;;;;;;15.03;98.41;93990.13;5432910;26;19932;-72
2024/04/13 05:59:35;;;;;;;;;;;;;;;15.31;99.95;93998.34;5444770;26;20005;-72
2024/04/13 06:02:00;;;;;;;;;;;;;;;15.58;96.36;93990.22;5442050;26;19935;-72
2024/04/13 06:04:25;;;;;;;;;;;;;;;15.86;93.60;93989.63;5410060;26;19930;-73
2024/04/13 06:06:51;;;;;;;;;;;;;;;16.16;89.52;93988.00;5444793;26;19940;-72
2024/04/13 06:09:16;;;;;;;;;;;;;;;16.43;89.64;93984.91;5444583;26;20616;-72
2024/04/13 06:11:42;;;;;;;;;;;;;;;16.68;92.27;93984.66;5424205;26;20350;-72
2024/04/13 06:14:07;;;;;;;;;;;;;;;16.81;93.01;93983.63;5429463;26;19941;-72
2024/04/13 06:16:33;;;;;;;;;;;;;;;17.07;90.20;93981.56;5444504;26;19928;-72
2024/04/13 06:18:58;;;;;;;;;;;;;;;17.33;91.66;93978.66;5432435;26;19936;-72
2024/04/13 06:21:24;;;;;;;;;;;;;;;17.09;92.78;93981.34;5406113;26;20364;-73
2024/04/13 06:23:49;;;;;;;;;;;;;;;17.35;90.84;93979.19;5427737;26;20387;-73
2024/04/13 06:26:15;;;;;;;;;;;;;;;17.71;88.85;93973.81;5414058;26;19928;-72
2024/04/13 06:28:40;;;;;;;;;;;;;;;17.95;87.58;93974.47;5426043;26;19935;-72
2024/04/13 06:31:06;;;;;;;;;;;;;;;17.93;85.96;93981.72;5412950;26;19929;-72
2024/04/13 06:33:33;;;;;;;;;;;;;;;17.36;89.75;93981.56;5410530;26;20080;-73
2024/04/13 06:35:58;;;;;;;;;;;;;;;17.27;92.26;93982.94;5426211;26;19929;-73
2024/04/13 06:38:24;;;;;;;;;;;;;;;17.32;92.37;93983.03;5444566;26;19997;-73
2024/04/13 06:40:53;;;;;;;;;;;;;;;17.17;92.67;93982.78;5407500;26;20489;-73
2024/04/13 06:43:22;;;;;;;;;;;;;;;17.29;94.01;93985.31;5410193;26;19928;-73
2024/04/13 06:45:47;;;;;;;;;;;;;;;17.74;92.25;93978.56;5426314;26;19936;-73
2024/04/13 06:48:12;;;;;;;;;;;;;;;17.77;89.95;93981.47;5422596;26;20269;-73
2024/04/13 06:50:38;;;;;;;;;;;;;;;18.13;88.72;93986.47;5412556;26;19928;-73
2024/04/13 06:53:03;;;;;;;;;;;;;;;17.46;92.58;93987.97;5429759;26;19937;-72
2024/04/13 06:55:28;;;;;;;;;;;;;;;17.27;93.20;93984.78;5444843;26;19929;-72
2024/04/13 06:57:54;;;;;;;;;;;;;;;17.47;92.28;93985.16;5408486;26;19955;-72
2024/04/13 07:00:19;;;;;;;;;;;;;;;17.71;92.54;93977.22;5408246;26;19936;-72
2024/04/13 07:02:45;;;;;;;;;;;;;;;18.24;89.67;93978.81;5432839;26;19936;-73
2024/04/13 07:05:11;;;;;;;;;;;;;;;18.83;86.58;93980.88;5425112;26;20349;-72
2024/04/13 07:07:36;;;;;;;;;;;;;;;19.09;81.58;93977.81;5414957;26;19936;-72
2024/04/13 07:10:02;;;;;;;;;;;;;;;19.31;83.03;93980.38;5403234;26;19930;-72
2024/04/13 07:12:27;;;;;;;;;;;;;;;19.37;82.36;93986.44;5409147;26;20004;-72
2024/04/13 07:14:53;;;;;;;;;;;;;;;19.73;80.25;93981.53;5410821;26;19929;-72
2024/04/13 07:17:19;;;;;;;;;;;;;;;19.34;79.67;93984.31;5411315;26;19968;-73
2024/04/13 07:19:44;;;;;;;;;;;;;;;19.53;80.77;93976.94;5404004;26;19985;-72
2024/04/13 07:22:09;;;;;;;;;;;;;;;19.94;78.33;93979.13;5422867;26;20384;-72
2024/04/13 07:24:35;;;;;;;;;;;;;;;20.19;76.48;93969.16;5443557;26;20241;-72
2024/04/13 07:27:00;;;;;;;;;;;;;;;20.41;73.59;93972.41;5439448;26;20345;-72
2024/04/13 07:29:25;;;;;;;;;;;;;;;20.34;75.81;93974.47;5417419;26;19940;-72
2024/04/13 07:31:51;;;;;;;;;;;;;;;20.82;73.86;93968.44;5410868;26;19929;-72
2024/04/13 07:34:17;;;;;;;;;;;;;;;20.18;75.63;93972.78;5414605;26;19937;-72
2024/04/13 07:36:43;;;;;;;;;;;;;;;20.14;74.41;93967.31;5414775;26;19957;-72
2024/04/13 07:39:08;;;;;;;;;;;;;;;20.42;75.82;93953.09;5416663;26;19974;-72
2024/04/13 07:41:34;;;;;;;;;;;;;;;20.65;73.03;93958.19;5414563;26;19929;-72
2024/04/13 07:43:59;;;;;;;;;;;;;;;20.88;71.83;93961.44;5414249;26;19998;-72
2024/04/13 07:46:25;;;;;;;;;;;;;;;21.22;70.64;93961.00;5414502;26;20352;-72
2024/04/13 07:48:51;;;;;;;;;;;;;;;21.62;69.16;93950.91;5403032;26;19929;-72
2024/04/13 07:51:16;;;;;;;;;;;;;;;21.97;67.50;93954.56;5411275;26;20018;-72
2024/04/13 07:53:41;;;;;;;;;;;;;;;22.41;66.17;93945.34;5414156;26;19929;-72
2024/04/13 07:56:07;;;;;;;;;;;;;;;22.58;64.61;93948.75;5424351;26;19929;-72
2024/04/13 07:58:32;;;;;;;;;;;;;;;22.92;64.55;93948.09;5410349;26;19937;-72
2024/04/13 08:00:57;;;;;;;;;;;;;;;23.01;63.08;93943.84;5420875;26;19929;-72
2024/04/13 08:03:23;;;;;;;;;;;;;;;23.09;60.79;93947.72;5441440;26;19989;-73
2024/04/13 08:05:49;;;;;;;;;;;;;;;23.30;61.27;93942.38;5413205;26;19936;-72
2024/04/13 08:08:14;;;;;;;;;;;;;;;22.59;61.37;93950.31;5413309;26;20264;-72
2024/04/13 08:10:42;;;;;;;;;;;;;;;21.73;60.90;93951.69;5383172;26;19929;-72
2024/04/13 08:13:07;;;;;;;;;;;;;;;21.66;62.12;93951.91;5413891;26;19929;-72
2024/04/13 08:15:33;;;;;;;;;;;;;;;20.95;63.12;93954.94;5413824;26;19998;-71
2024/04/13 08:17:58;;;;;;;;;;;;;;;21.27;65.73;93947.97;5417729;26;19936;-72
2024/04/13 08:20:23;;;;;;;;;;;;;;;21.91;63.65;93942.56;5417566;26;20411;-72
2024/04/13 08:22:48;;;;;;;;;;;;;;;22.12;61.56;93942.53;5419395;26;20000;-72
2024/04/13 08:25:14;;;;;;;;;;;;;;;21.34;63.06;93951.09;5425191;26;20003;-72
2024/04/13 08:27:39;;;;;;;;;;;;;;;21.39;63.73;93952.97;5421308;26;19935;-72
2024/04/13 08:30:05;;;;;;;;;;;;;;;21.29;61.43;93945.88;5425879;26;19929;-72
2024/04/13 08:32:31;;;;;;;;;;;;;;;21.85;63.08;93933.16;5445424;26;19957;-72
2024/04/13 08:34:56;;;;;;;;;;;;;;;21.40;61.36;93948.50;5428453;26;20269;-72
2024/04/13 08:37:21;;;;;;;;;;;;;;;21.36;57.28;93943.00;5415561;26;20019;-72
2024/04/13 08:39:47;;;;;;;;;;;;;;;21.64;60.50;93935.72;5426597;26;19936;-72
2024/04/13 08:42:14;;;;;;;;;;;;;;;22.09;60.08;93929.97;5416276;26;19937;-72
2024/04/13 08:44:39;;;;;;;;;;;;;;;22.67;58.68;93924.34;5415383;26;19943;-72
2024/04/13 08:47:05;;;;;;;;;;;;;;;22.80;53.14;93936.09;5423573;26;20261;-72
2024/04/13 08:49:32;;;;;;;;;;;;;;;22.38;51.03;93934.63;5419472;26;19929;-72
2024/04/13 08:51:59;;;;;;;;;;;;;;;22.53;51.03;93931.19;5416913;26;19928;-72
2024/04/13 08:54:24;;;;;;;;;;;;;;;22.69;50.18;93934.56;5417410;26;19979;-72
2024/04/13 08:56:51;;;;;;;;;;;;;;;22.36;50.05;93936.72;5430763;26;19940;-72
2024/04/13 08:59:16;;;;;;;;;;;;;;;22.18;50.74;93925.78;5413342;26;19998;-73
2024/04/13 09:01:43;;;;;;;;;;;;;;;22.55;50.29;93929.88;5415266;26;20339;-72
2024/04/13 09:04:08;;;;;;;;;;;;;;;22.36;48.84;93937.50;5417658;26;19953;-72
2024/04/13 09:06:34;;;;;;;;;;;;;;;22.54;47.97;93930.94;5434759;26;19997;-72
2024/04/13 09:09:08;;;;;;;;;;;;;;;22.72;48.18;93930.63;5418177;26;19935;-72
2024/04/13 09:11:35;;;;;;;;;;;;;;;22.88;49.39;93929.50;5413457;26;19936;-72
2024/04/13 09:14:00;;;;;;;;;;;;;;;23.41;48.33;93920.31;5438983;26;19928;-72
2024/04/13 09:16:25;;;;;;;;;;;;;;;22.89;47.31;93925.03;5410308;26;19940;-71
2024/04/13 09:18:51;;;;;;;;;;;;;;;23.25;48.06;93913.56;5420654;26;20381;-72
2024/04/13 09:21:17;;;;;;;;;;;;;;;23.42;46.61;93913.25;5426642;26;19960;-72
2024/04/13 09:23:43;;;;;;;;;;;;;;;23.79;45.86;93919.00;5413894;26;19940;-72
2024/04/13 09:26:09;;;;;;;;;;;;;;;23.66;45.72;93915.16;5423454;26;19948;-72
2024/04/13 09:28:45;;;;;;;;;;;;;;;23.80;46.03;93916.09;5435631;26;19937;-71
2024/04/13 09:31:11;;;;;;;;;;;;;;;24.06;46.91;93913.22;5413189;26;19929;-72
2024/04/13 09:33:37;;;;;;;;;;;;;;;24.05;44.87;93906.41;5417585;26;19933;-72
2024/04/13 09:36:03;;;;;;;;;;;;;;;23.70;44.80;93903.84;5432203;26;19928;-71
2024/04/13 09:38:28;;;;;;;;;;;;;;;23.84;46.24;93896.09;5412587;26;19998;-72
2024/04/13 09:40:57;;;;;;;;;;;;;;;23.98;46.46;93901.50;5443214;26;19928;-72
2024/04/13 09:43:23;;;;;;;;;;;;;;;24.05;45.76;93901.19;5425055;26;20499;-72
2024/04/13 09:45:54;;;;;;;;;;;;;;;23.51;46.15;93898.47;5416350;26;19928;-71
2024/04/13 09:48:20;;;;;;;;;;;;;;;23.58;44.55;93906.03;5413211;26;20382;-72
2024/04/13 09:50:45;;;;;;;;;;;;;;;23.07;45.32;93900.06;5418366;26;19929;-72
2024/04/13 09:53:10;;;;;;;;;;;;;;;23.23;46.03;93892.88;5423234;26;19956;-72
2024/04/13 09:55:37;;;;;;;;;;;;;;;23.28;44.76;93894.69;5443749;26;19997;-72
2024/04/13 09:58:04;;;;;;;;;;;;;;;23.94;44.92;93884.75;5403357;26;19930;-72
2024/04/13 10:00:29;;;;;;;;;;;;;;;24.05;44.35;93895.94;5420433;26;19964;-72
2024/04/13 10:02:55;;;;;;;;;;;;;;;24.04;43.81;93891.75;5424955;26;19929;-72
2024/04/13 10:05:22;;;;;;;;;;;;;;;23.81;41.87;93906.38;5413172;26;20356;-72
2024/04/13 10:07:48;;;;;;;;;;;;;;;23.76;42.36;93894.88;5411147;26;19936;-72
2024/04/13 10:10:13;;;;;;;;;;;;;;;23.52;43.25;93894.81;5422189;26;19936;-72
2024/04/13 10:12:39;;;;;;;;;;;;;;;23.98;43.95;93900.72;5413720;26;19930;-72
2024/04/13 10:15:06;;;;;;;;;;;;;;;23.63;42.86;93892.88;5412411;26;19957;-72
2024/04/13 10:17:32;;;;;;;;;;;;;;;24.28;41.70;93888.38;5418924;26;19936;-72
2024/04/13 10:19:58;;;;;;;;;;;;;;;24.67;42.09;93895.28;5408561;26;19929;-72
2024/04/13 10:22:25;;;;;;;;;;;;;;;23.98;42.42;93882.34;5431293;26;19937;-72
2024/04/13 10:24:51;;;;;;;;;;;;;;;23.56;41.17;93892.44;5426012;26;19937;-72
2024/04/13 10:27:22;;;;;;;;;;;;;;;23.45;41.58;93886.47;5424620;26;20099;-72
2024/04/13 10:29:48;;;;;;;;;;;;;;;23.30;42.14;93884.72;5416722;26;19944;-72
2024/04/13 10:32:14;;;;;;;;;;;;;;;23.07;41.84;93879.91;5414724;26;19937;-72
2024/04/13 10:34:39;;;;;;;;;;;;;;;23.06;41.61;93873.06;5415573;26;19941;-72
2024/04/13 10:37:22;;;;;;;;;;;;;;;23.22;42.83;93863.28;5409070;26;19998;-72
2024/04/13 10:39:57;;;;;;;;;;;;;;;22.66;42.99;93872.25;5419545;26;19928;-72
2024/04/13 10:42:38;;;;;;;;;;;;;;;22.89;43.23;93865.59;5417238;26;19977;-72
2024/04/13 10:45:19;;;;;;;;;;;;;;;23.26;43.69;93865.34;5419723;26;20262;-72
2024/04/13 10:47:45;;;;;;;;;;;;;;;23.39;42.44;93859.53;5410117;26;19940;-72
2024/04/13 10:50:14;;;;;;;;;;;;;;;23.09;41.00;93871.75;5420939;26;19935;-72
2024/04/13 10:52:40;;;;;;;;;;;;;;;23.16;42.16;93863.59;5409046;26;19935;-72
2024/04/13 10:55:05;;;;;;;;;;;;;;;23.18;41.74;93864.09;5416293;26;19933;-72
2024/04/13 10:57:31;;;;;;;;;;;;;;;23.63;40.51;93864.03;5414993;26;20535;-72
2024/04/13 10:59:56;;;;;;;;;;;;;;;23.44;38.83;93867.34;5413270;26;19936;-72
2024/04/13 11:02:21;;;;;;;;;;;;;;;23.17;39.70;93865.13;5411466;26;20256;-72
2024/04/13 11:04:47;;;;;;;;;;;;;;;23.08;40.10;93857.06;5425306;26;19935;-72
2024/04/13 11:07:13;;;;;;;;;;;;;;;23.07;40.75;93858.13;5422169;26;19935;-72
2024/04/13 11:09:41;;;;;;;;;;;;;;;23.07;41.65;93852.91;5420609;26;19929;-72
2024/04/13 11:12:07;;;;;;;;;;;;;;;22.85;41.62;93851.47;5414292;26;19929;-72
2024/04/13 11:14:33;;;;;;;;;;;;;;;22.77;41.00;93852.81;5422160;26;19940;-72
2024/04/13 11:16:58;;;;;;;;;;;;;;;22.98;40.41;93842.22;5430771;26;19933;-71
2024/04/13 11:19:23;;;;;;;;;;;;;;;23.49;39.85;93837.69;5421766;26;19944;-72
2024/04/13 11:21:49;;;;;;;;;;;;;;;23.62;37.41;93829.16;5416965;26;19973;-72
2024/04/13 11:24:14;;;;;;;;;;;;;;;23.67;37.86;93830.97;5416910;26;19979;-72
2024/04/13 11:26:40;;;;;;;;;;;;;;;24.20;36.40;93826.00;5420396;26;19936;-72
2024/04/13 11:29:05;;;;;;;;;;;;;;;24.20;36.35;93823.38;5432042;26;19940;-72
2024/04/13 11:31:31;;;;;;;;;;;;;;;24.09;37.13;93814.81;5416076;26;19929;-72
2024/04/13 11:33:56;;;;;;;;;;;;;;;24.17;38.44;93814.22;5434911;26;20352;-72
2024/04/13 11:36:22;;;;;;;;;;;;;;;24.18;38.45;93807.91;5414736;26;19938;-72
2024/04/13 11:38:47;;;;;;;;;;;;;;;24.49;38.83;93812.00;5415673;26;19937;-72
2024/04/13 11:41:12;;;;;;;;;;;;;;;24.69;37.10;93813.56;5426062;26;20353;-71
2024/04/13 11:43:39;;;;;;;;;;;;;;;24.68;34.36;93815.41;5416254;26;19937;-71
2024/04/13 11:46:04;;;;;;;;;;;;;;;24.61;34.56;93814.19;5416159;26;20001;-72
2024/04/13 11:48:31;;;;;;;;;;;;;;;24.37;33.21;93818.44;5415191;26;19937;-71
2024/04/13 11:50:57;;;;;;;;;;;;;;;24.97;35.02;93805.06;5417813;26;20463;-72
2024/04/13 11:53:22;;;;;;;;;;;;;;;25.30;32.75;93797.19;5416033;26;19936;-72
2024/04/13 11:55:48;;;;;;;;;;;;;;;25.28;32.10;93802.75;5415738;26;19935;-71
2024/04/13 11:58:23;;;;;;;;;;;;;;;25.15;33.51;93799.00;5417645;26;19933;-72
2024/04/13 12:00:48;;;;;;;;;;;;;;;24.91;33.66;93802.50;5420678;26;19929;-72
2024/04/13 12:03:13;;;;;;;;;;;;;;;25.03;33.41;93796.03;5416462;26;19929;-72
2024/04/13 12:05:39;;;;;;;;;;;;;;;25.40;33.46;93794.41;5426564;26;19929;-72
2024/04/13 12:08:04;;;;;;;;;;;;;;;24.68;33.49;93793.63;5417488;26;19966;-71
2024/04/13 12:10:30;;;;;;;;;;;;;;;24.29;34.46;93804.09;5414189;26;20771;-72
2024/04/13 12:12:55;;;;;;;;;;;;;;;24.01;35.07;93803.06;5440837;26;19929;-72
2024/04/13 12:15:21;;;;;;;;;;;;;;;23.79;34.73;93799.09;5422421;26;19993;-72
2024/04/13 12:17:46;;;;;;;;;;;;;;;23.74;35.15;93804.41;5419367;26;19929;-72
2024/04/13 12:20:11;;;;;;;;;;;;;;;22.41;45.97;93800.63;5421046;26;19928;-72
2024/04/13 12:22:36;;;;;;;;;;;;;;;22.38;48.39;93791.47;5409782;26;19929;-72
2024/04/13 12:25:03;;;;;;;;;;;;;;;22.60;48.13;93787.72;5421434;26;20003;-72
2024/04/13 12:27:29;;;;;;;;;;;;;;;22.29;47.61;93775.53;5417564;26;19963;-72
2024/04/13 12:29:54;;;;;;;;;;;;;;;22.46;48.42;93777.03;5428831;26;19928;-72
2024/04/13 12:32:19;;;;;;;;;;;;;;;22.49;46.97;93770.47;5417784;26;20272;-72
2024/04/13 12:34:44;;;;;;;;;;;;;;;22.60;47.50;93779.06;5422942;26;19929;-72
2024/04/13 12:37:10;;;;;;;;;;;;;;;22.91;46.06;93768.41;5423232;26;19997;-72